Time;durP1;ratioP1;P1;durP2;ratioP2;P2;SDS_P1;SDS_P2;PMS_P1;PMS_P2;Temp;Humidity;BMP_temperature;BMP_pressure;BME280_temperature;BME280_humidity;BME280_pressure;Samples;Min_cycle;Max_cycle;Signal;HPM_P1;HPM_P2
2021/01/17 00:01:54;;;;;;;1999.90;999.90;;;0.20;99.90;;;;;;5016962;28;20213;-87
2021/01/17 00:04:19;;;;;;;1999.90;999.90;;;0.30;99.90;;;;;;5019253;28;20173;-87
2021/01/17 00:06:45;;;;;;;1999.90;999.90;;;0.20;99.90;;;;;;5017787;28;20420;-88
2021/01/17 00:09:11;;;;;;;1999.90;999.90;;;0.20;99.90;;;;;;4999638;28;20180;-87
2021/01/17 00:11:36;;;;;;;1999.90;999.90;;;0.20;99.90;;;;;;4999093;28;20251;-87
2021/01/17 00:14:02;;;;;;;1999.90;999.90;;;0.30;99.90;;;;;;5016956;28;20170;-87
2021/01/17 00:16:28;;;;;;;1999.90;999.90;;;0.30;99.90;;;;;;5016238;28;20200;-87
2021/01/17 00:18:53;;;;;;;1999.90;999.90;;;0.30;99.90;;;;;;5016777;28;20419;-87
2021/01/17 00:21:19;;;;;;;1999.90;999.90;;;0.30;99.90;;;;;;5015636;28;20173;-87
2021/01/17 00:23:45;;;;;;;1999.90;999.90;;;0.30;99.90;;;;;;5015805;28;20625;-87
2021/01/17 00:26:10;;;;;;;1999.90;999.90;;;0.30;99.90;;;;;;5015957;28;20170;-88
2021/01/17 00:28:39;;;;;;;1999.90;999.90;;;0.30;99.90;;;;;;5016057;28;20189;-87
2021/01/17 00:31:05;;;;;;;1999.90;999.90;;;0.30;99.90;;;;;;4997942;28;20178;-87
2021/01/17 00:33:30;;;;;;;1999.90;999.90;;;0.40;99.90;;;;;;5014806;28;20173;-87
2021/01/17 00:35:56;;;;;;;1999.90;999.90;;;0.40;99.90;;;;;;4999054;28;20194;-87
2021/01/17 00:38:22;;;;;;;1999.90;999.90;;;0.40;99.90;;;;;;5016077;28;20162;-88
2021/01/17 00:40:47;;;;;;;1999.90;999.90;;;0.30;99.90;;;;;;4998454;28;20331;-87
2021/01/17 00:43:13;;;;;;;1999.90;999.90;;;0.30;99.90;;;;;;4997855;28;20168;-87
2021/01/17 00:45:39;;;;;;;1999.90;999.90;;;0.30;99.90;;;;;;5015339;28;20170;-87
2021/01/17 00:48:05;;;;;;;1999.90;999.90;;;0.30;99.90;;;;;;4997275;28;20655;-87
2021/01/17 00:50:30;;;;;;;1999.90;999.90;;;0.40;99.90;;;;;;4997142;28;20176;-87
2021/01/17 00:52:56;;;;;;;1999.90;999.90;;;0.40;99.90;;;;;;4997376;28;20253;-87
2021/01/17 00:55:22;;;;;;;1999.90;999.90;;;0.50;99.90;;;;;;5001699;28;20235;-87
2021/01/17 00:57:48;;;;;;;1999.90;999.90;;;0.50;99.90;;;;;;5002132;28;20625;-87
2021/01/17 01:00:16;;;;;;;1999.90;999.90;;;0.50;99.90;;;;;;5001563;28;20475;-87
2021/01/17 01:02:42;;;;;;;1999.90;999.90;;;0.50;99.90;;;;;;5018881;28;20226;-87
2021/01/17 01:05:09;;;;;;;1999.90;999.90;;;0.50;99.90;;;;;;5018607;28;20242;-87
2021/01/17 01:07:38;;;;;;;1999.90;999.90;;;0.50;99.90;;;;;;5001050;28;20166;-87
2021/01/17 01:10:07;;;;;;;1999.90;999.90;;;0.40;99.90;;;;;;5018462;28;20212;-87
2021/01/17 01:12:34;;;;;;;1999.90;999.90;;;0.40;99.90;;;;;;5018406;28;20166;-87
2021/01/17 01:15:00;;;;;;;1999.90;999.90;;;0.40;99.90;;;;;;5000665;28;20201;-87
2021/01/17 01:17:26;;;;;;;1999.90;999.90;;;0.40;99.90;;;;;;5000719;28;20170;-87
2021/01/17 01:19:53;;;;;;;1999.90;999.90;;;0.40;99.90;;;;;;5018511;28;20633;-87
2021/01/17 01:22:18;;;;;;;1999.90;999.90;;;0.40;99.90;;;;;;5000883;28;20166;-87
2021/01/17 01:24:44;;;;;;;1999.90;999.90;;;0.30;99.90;;;;;;5018180;28;20533;-87
2021/01/17 01:27:13;;;;;;;1999.90;999.90;;;0.30;99.90;;;;;;5000393;28;20404;-87
2021/01/17 01:29:39;;;;;;;1999.90;999.90;;;0.30;99.90;;;;;;5017967;28;20166;-87
2021/01/17 01:32:06;;;;;;;1999.90;999.90;;;0.30;99.90;;;;;;5000143;28;20173;-87
2021/01/17 01:34:32;;;;;;;1999.90;999.90;;;0.30;99.90;;;;;;5017700;28;20161;-87
2021/01/17 01:36:57;;;;;;;1999.90;999.90;;;0.30;99.90;;;;;;5000268;28;20665;-87
2021/01/17 01:39:23;;;;;;;1999.90;999.90;;;0.40;99.90;;;;;;5017760;28;20158;-87
2021/01/17 01:41:48;;;;;;;1999.90;999.90;;;0.40;99.90;;;;;;5017548;28;20172;-87
2021/01/17 01:44:14;;;;;;;1999.90;999.90;;;0.50;99.90;;;;;;5017171;28;20200;-87
2021/01/17 01:46:41;;;;;;;1999.90;999.90;;;0.50;99.90;;;;;;5000215;28;20213;-87
2021/01/17 01:49:08;;;;;;;1999.90;999.90;;;0.50;99.90;;;;;;5017092;28;20668;-87
2021/01/17 01:51:35;;;;;;;1999.90;999.90;;;0.50;99.90;;;;;;4999947;28;20181;-87
2021/01/17 01:54:01;;;;;;;1999.90;999.90;;;0.50;99.90;;;;;;5017124;28;20216;-87
2021/01/17 01:56:27;;;;;;;1999.90;999.90;;;0.40;99.90;;;;;;4999470;28;20596;-87
2021/01/17 01:58:54;;;;;;;1999.90;999.90;;;0.50;99.90;;;;;;4999745;28;20224;-87
2021/01/17 02:01:23;;;;;;;1999.90;999.90;;;0.40;99.90;;;;;;4999053;28;20552;-88
2021/01/17 02:03:50;;;;;;;1999.90;999.90;;;0.40;99.90;;;;;;4999554;28;20594;-87
2021/01/17 02:06:26;;;;;;;1999.90;999.90;;;0.50;99.90;;;;;;5016768;28;20241;-87
2021/01/17 02:09:20;;;;;;;1999.90;999.90;;;0.40;99.90;;;;;;4998786;28;20168;-88
2021/01/17 02:12:03;;;;;;;1999.90;999.90;;;0.40;99.90;;;;;;5016922;28;20157;-87
2021/01/17 02:14:38;;;;;;;1999.90;999.90;;;0.40;99.90;;;;;;5015061;28;20248;-87
2021/01/17 02:17:16;;;;;;;1999.90;999.90;;;0.40;99.90;;;;;;4998959;28;20197;-87
2021/01/17 02:20:14;;;;;;;1999.90;999.90;;;0.30;99.90;;;;;;5016531;28;20725;-87
2021/01/17 02:23:01;;;;;;;1999.90;999.90;;;0.30;99.90;;;;;;5013073;28;20186;-87
2021/01/17 02:25:29;;;;;;;1999.90;999.90;;;0.40;99.90;;;;;;4999392;28;20216;-88
2021/01/17 02:27:57;;;;;;;1999.90;999.90;;;0.30;99.90;;;;;;4998370;28;20174;-87
2021/01/17 02:30:26;;;;;;;1999.90;999.90;;;0.30;99.90;;;;;;4998118;28;20300;-88
2021/01/17 02:32:56;;;;;;;1999.90;999.90;;;0.30;99.90;;;;;;5016199;28;20560;-87
2021/01/17 02:35:24;;;;;;;1999.90;999.90;;;0.30;99.90;;;;;;4998236;28;20182;-87
2021/01/17 02:38:16;;;;;;;1999.90;999.90;;;0.30;99.90;;;;;;4998265;28;20535;-87
2021/01/17 02:40:47;;;;;;;1999.90;999.90;;;0.40;99.90;;;;;;4998699;28;20301;-87
2021/01/17 02:43:14;;;;;;;1999.90;999.90;;;0.40;99.90;;;;;;4998103;28;20625;-87
2021/01/17 02:45:41;;;;;;;1999.90;999.90;;;0.30;99.90;;;;;;5015789;28;20185;-87
2021/01/17 02:48:07;;;;;;;1999.90;999.90;;;0.40;99.90;;;;;;4997997;28;20169;-87
2021/01/17 02:50:33;;;;;;;1999.90;999.90;;;0.30;99.90;;;;;;4997857;28;20193;-87
2021/01/17 02:53:15;;;;;;;1999.90;999.90;;;0.30;99.90;;;;;;5015366;28;20158;-87
2021/01/17 02:55:40;;;;;;;1999.90;999.90;;;0.30;99.90;;;;;;4998590;28;20213;-88
2021/01/17 02:58:08;;;;;;;1999.90;999.90;;;0.30;99.90;;;;;;5015270;28;20715;-87
2021/01/17 03:00:36;;;;;;;1999.90;999.90;;;0.30;99.90;;;;;;4997626;28;20550;-87
2021/01/17 03:03:06;;;;;;;1999.90;999.90;;;0.30;99.90;;;;;;4997613;28;20177;-87
2021/01/17 03:05:33;;;;;;;1999.90;999.90;;;0.30;99.90;;;;;;5015490;28;20224;-87
2021/01/17 03:08:03;;;;;;;1999.90;999.90;;;0.30;99.90;;;;;;4998409;28;20173;-87
2021/01/17 03:10:30;;;;;;;1999.90;999.90;;;0.30;99.90;;;;;;5015580;28;20166;-87
2021/01/17 03:12:58;;;;;;;1999.90;999.90;;;0.40;99.90;;;;;;5015732;28;20170;-87
2021/01/17 03:15:25;;;;;;;1999.90;999.90;;;0.30;99.90;;;;;;4996897;28;20194;-87
2021/01/17 03:17:50;;;;;;;1999.90;999.90;;;0.30;99.90;;;;;;4997059;28;20166;-87
2021/01/17 03:20:16;;;;;;;1999.90;999.90;;;0.30;99.90;;;;;;5015294;28;20221;-87
2021/01/17 03:22:42;;;;;;;1999.90;999.90;;;0.30;99.90;;;;;;5015304;28;20684;-87
2021/01/17 03:25:08;;;;;;;1999.90;999.90;;;0.30;99.90;;;;;;5015860;28;20232;-87
2021/01/17 03:27:34;;;;;;;1999.90;999.90;;;0.30;99.90;;;;;;5014114;28;20276;-87
2021/01/17 03:29:59;;;;;;;1999.90;999.90;;;0.40;99.90;;;;;;4997895;28;20237;-88
2021/01/17 03:32:25;;;;;;;1999.90;999.90;;;0.40;99.90;;;;;;5015384;28;20190;-87
2021/01/17 03:34:51;;;;;;;1999.90;999.90;;;0.40;99.90;;;;;;4998133;28;20568;-87
2021/01/17 03:37:20;;;;;;;1999.90;999.90;;;0.40;99.90;;;;;;4998038;28;20162;-87
2021/01/17 03:39:46;;;;;;;1999.90;999.90;;;0.40;99.90;;;;;;4997560;28;20166;-88
2021/01/17 03:42:12;;;;;;;1999.90;999.90;;;0.40;99.90;;;;;;4997153;28;20219;-87
2021/01/17 03:44:39;;;;;;;1999.90;999.90;;;0.40;99.90;;;;;;5014715;28;20245;-87
2021/01/17 03:47:07;;;;;;;1999.90;999.90;;;0.30;99.90;;;;;;5014638;28;20162;-87
2021/01/17 03:49:33;;;;;;;1999.90;999.90;;;0.30;99.90;;;;;;4996742;28;20174;-87
2021/01/17 03:51:59;;;;;;;1999.90;999.90;;;0.30;99.90;;;;;;5014610;28;20192;-87
2021/01/17 03:54:24;;;;;;;1999.90;999.90;;;0.40;99.90;;;;;;4996818;28;20504;-88
2021/01/17 03:56:50;;;;;;;1999.90;999.90;;;0.30;99.90;;;;;;4997178;28;20217;-87
2021/01/17 03:59:16;;;;;;;1999.90;999.90;;;0.30;99.90;;;;;;5014515;28;20161;-87
2021/01/17 04:01:45;;;;;;;1999.90;999.90;;;0.40;99.90;;;;;;4996993;28;20166;-87
2021/01/17 04:04:11;;;;;;;1999.90;999.90;;;0.40;99.90;;;;;;4996889;28;20257;-87
2021/01/17 04:06:37;;;;;;;1999.90;999.90;;;0.50;99.90;;;;;;5014521;28;20205;-88
2021/01/17 04:09:04;;;;;;;1999.90;999.90;;;0.50;99.90;;;;;;4997054;28;20416;-87
2021/01/17 04:11:30;;;;;;;1999.90;999.90;;;0.40;99.90;;;;;;4996876;28;20169;-87
2021/01/17 04:13:55;;;;;;;1999.90;999.90;;;0.40;99.90;;;;;;4996608;28;20261;-88
2021/01/17 04:16:21;;;;;;;1999.90;999.90;;;0.40;99.90;;;;;;5014007;28;20256;-87
2021/01/17 04:18:47;;;;;;;1999.90;999.90;;;0.40;99.90;;;;;;5013991;28;20241;-87
2021/01/17 04:21:12;;;;;;;1999.90;999.90;;;0.40;99.90;;;;;;5014194;28;20169;-87
2021/01/17 04:23:38;;;;;;;1999.90;999.90;;;0.40;99.90;;;;;;4996412;28;20165;-87
2021/01/17 04:26:04;;;;;;;1999.90;999.90;;;0.40;99.90;;;;;;5014187;28;20250;-87
2021/01/17 04:28:29;;;;;;;1999.90;999.90;;;0.40;99.90;;;;;;5013914;28;20170;-87
2021/01/17 04:30:55;;;;;;;1999.90;999.90;;;0.40;99.90;;;;;;5014042;28;20166;-87
2021/01/17 04:33:21;;;;;;;1999.90;999.90;;;0.40;99.90;;;;;;5014285;28;20253;-87
2021/01/17 04:35:47;;;;;;;1999.90;999.90;;;0.30;99.90;;;;;;5013932;28;20299;-87
2021/01/17 04:38:14;;;;;;;1999.90;999.90;;;0.40;99.90;;;;;;5014257;28;20170;-87
2021/01/17 04:40:39;;;;;;;1999.90;999.90;;;0.40;99.90;;;;;;4996080;28;20659;-87
2021/01/17 04:43:08;;;;;;;1999.90;999.90;;;0.40;99.90;;;;;;5014246;28;20174;-87
2021/01/17 04:45:34;;;;;;;1999.90;999.90;;;0.40;99.90;;;;;;5013946;28;20541;-88
2021/01/17 04:48:02;;;;;;;1999.90;999.90;;;0.40;99.90;;;;;;4995951;28;20170;-87
2021/01/17 04:50:31;;;;;;;1999.90;999.90;;;0.50;99.90;;;;;;5014187;28;20166;-87
2021/01/17 04:53:07;;;;;;;1999.90;999.90;;;0.40;99.90;;;;;;4996394;28;20177;-87
2021/01/17 04:55:37;;;;;;;1999.90;999.90;;;0.50;99.90;;;;;;5014113;28;20257;-87
2021/01/17 04:58:10;;;;;;;1999.90;999.90;;;0.50;99.90;;;;;;4996601;28;20232;-87
2021/01/17 05:00:44;;;;;;;1999.90;999.90;;;0.60;99.90;;;;;;4996021;28;20185;-87
2021/01/17 05:03:31;;;;;;;1999.90;999.90;;;0.60;99.90;;;;;;5013978;28;20150;-87
2021/01/17 05:06:09;;;;;;;1999.90;999.90;;;0.60;99.90;;;;;;4996424;28;20173;-87
2021/01/17 05:08:34;;;;;;;1999.90;999.90;;;0.60;99.90;;;;;;4999951;28;20185;-87
2021/01/17 05:11:07;;;;;;;1999.90;999.90;;;0.60;99.90;;;;;;5017228;28;20193;-87
2021/01/17 05:13:48;;;;;;;1999.90;999.90;;;0.60;99.90;;;;;;4997054;28;20647;-88
2021/01/17 05:16:15;;;;;;;1999.90;999.90;;;0.60;99.90;;;;;;5014332;28;20182;-87
2021/01/17 05:18:48;;;;;;;1999.90;999.90;;;0.60;99.90;;;;;;4996455;28;20633;-87
2021/01/17 05:21:20;;;;;;;1999.90;999.90;;;0.70;99.90;;;;;;4996403;28;20166;-87
2021/01/17 05:23:47;;;;;;;1999.90;999.90;;;0.70;99.90;;;;;;4996243;28;20154;-87
2021/01/17 05:26:14;;;;;;;1999.90;999.90;;;0.70;99.90;;;;;;5013048;28;20629;-87
2021/01/17 05:28:40;;;;;;;1999.90;999.90;;;0.70;99.90;;;;;;4996728;28;20213;-87
2021/01/17 05:31:05;;;;;;;1999.90;999.90;;;0.70;99.90;;;;;;4995908;28;20170;-87
2021/01/17 05:33:32;;;;;;;1999.90;999.90;;;0.80;99.90;;;;;;5014689;28;20413;-87
2021/01/17 05:35:59;;;;;;;1999.90;999.90;;;0.80;99.90;;;;;;5013621;28;20444;-87
2021/01/17 05:38:26;;;;;;;1999.90;999.90;;;0.80;99.90;;;;;;5013644;28;20304;-87
2021/01/17 05:40:53;;;;;;;1999.90;999.90;;;0.80;99.90;;;;;;4999309;28;20204;-87
2021/01/17 05:43:19;;;;;;;1999.90;999.90;;;0.70;99.90;;;;;;5016808;28;20218;-87
2021/01/17 05:45:45;;;;;;;1999.90;999.90;;;0.70;99.90;;;;;;5016925;28;20173;-87
2021/01/17 05:48:11;;;;;;;1999.90;999.90;;;0.70;99.90;;;;;;5015941;28;20174;-87
2021/01/17 05:50:42;;;;;;;1999.90;999.90;;;0.60;99.90;;;;;;4999897;28;20192;-87
2021/01/17 05:53:08;;;;;;;1999.90;999.90;;;0.70;99.90;;;;;;5017270;28;20625;-87
2021/01/17 05:55:41;;;;;;;1999.90;999.90;;;0.70;99.90;;;;;;5016894;28;20194;-87
2021/01/17 05:58:27;;;;;;;1999.90;999.90;;;0.70;99.90;;;;;;5017280;28;20413;-87
2021/01/17 06:01:00;;;;;;;1999.90;999.90;;;0.70;99.90;;;;;;5017155;28;20513;-87
2021/01/17 06:03:33;;;;;;;1999.90;999.90;;;0.70;99.90;;;;;;5016840;28;20247;-87
2021/01/17 06:06:01;;;;;;;1999.90;999.90;;;0.70;99.90;;;;;;5016503;28;20177;-87
2021/01/17 06:08:27;;;;;;;1999.90;999.90;;;0.70;99.90;;;;;;5016672;28;20169;-87
2021/01/17 06:11:11;;;;;;;1999.90;999.90;;;0.70;99.90;;;;;;5016901;28;20557;-87
2021/01/17 06:13:39;;;;;;;1999.90;999.90;;;0.80;99.90;;;;;;5016961;28;20154;-87
2021/01/17 06:16:26;;;;;;;1999.90;999.90;;;0.80;99.90;;;;;;5016849;28;20197;-87
2021/01/17 06:18:56;;;;;;;1999.90;999.90;;;0.70;99.90;;;;;;4999482;28;20193;-87
2021/01/17 06:21:27;;;;;;;1999.90;999.90;;;0.70;99.90;;;;;;4998963;28;20235;-87
2021/01/17 06:23:54;;;;;;;1999.90;999.90;;;0.70;99.90;;;;;;4998969;28;20237;-87
2021/01/17 06:26:24;;;;;;;1999.90;999.90;;;0.60;99.90;;;;;;4998920;28;20641;-87
2021/01/17 06:28:50;;;;;;;1999.90;999.90;;;0.70;99.90;;;;;;4998653;28;20173;-87
2021/01/17 06:31:21;;;;;;;1999.90;999.90;;;0.70;99.90;;;;;;4998944;28;20261;-87
2021/01/17 06:33:49;;;;;;;1999.90;999.90;;;0.70;99.90;;;;;;5016740;28;20146;-87
2021/01/17 06:36:16;;;;;;;1999.90;999.90;;;0.70;99.90;;;;;;5016367;28;20189;-87
2021/01/17 06:38:44;;;;;;;1999.90;999.90;;;0.80;99.90;;;;;;5015998;28;20201;-87
2021/01/17 06:41:10;;;;;;;1999.90;999.90;;;0.80;99.90;;;;;;5017037;28;20553;-88
2021/01/17 06:43:42;;;;;;;1999.90;999.90;;;0.80;99.90;;;;;;4999408;28;20162;-88
2021/01/17 06:46:08;;;;;;;1999.90;999.90;;;0.70;99.90;;;;;;4999016;28;20181;-87
2021/01/17 06:48:34;;;;;;;1999.90;999.90;;;0.70;99.90;;;;;;4999166;28;20170;-87
2021/01/17 06:51:20;;;;;;;1999.90;999.90;;;0.70;99.90;;;;;;4998800;28;20166;-87
2021/01/17 06:53:56;;;;;;;1999.90;999.90;;;0.70;99.90;;;;;;5016609;28;20177;-87
2021/01/17 06:56:22;;;;;;;1999.90;999.90;;;0.70;99.90;;;;;;4999160;28;20552;-87
2021/01/17 06:58:53;;;;;;;1999.90;999.90;;;0.70;99.90;;;;;;4998675;28;20629;-87
2021/01/17 07:01:29;;;;;;;1999.90;999.90;;;0.70;99.90;;;;;;5015975;28;20188;-88
2021/01/17 07:04:13;;;;;;;1999.90;999.90;;;0.70;99.90;;;;;;4998439;28;20154;-87
2021/01/17 07:07:00;;;;;;;1999.90;999.90;;;0.70;99.90;;;;;;4998735;28;20537;-87
2021/01/17 07:09:37;;;;;;;1999.90;999.90;;;0.70;99.90;;;;;;5015955;28;20170;-87
2021/01/17 07:12:34;;;;;;;1999.90;999.90;;;0.70;99.90;;;;;;4998472;28;20177;-87
2021/01/17 07:15:07;;;;;;;1999.90;999.90;;;0.70;99.90;;;;;;5015909;28;20640;-87
2021/01/17 07:17:35;;;;;;;1999.90;999.90;;;0.70;99.90;;;;;;5015964;28;20221;-87
2021/01/17 07:20:08;;;;;;;1999.90;999.90;;;0.70;99.90;;;;;;4998290;28;20715;-87
2021/01/17 07:22:35;;;;;;;1999.90;999.90;;;0.70;99.90;;;;;;4998680;28;20162;-87
2021/01/17 07:25:06;;;;;;;1999.90;999.90;;;0.70;99.90;;;;;;4997946;28;20220;-87
2021/01/17 07:27:51;;;;;;;1999.90;999.90;;;0.60;99.90;;;;;;4998134;28;20154;-87
2021/01/17 07:30:32;;;;;;;1999.90;999.90;;;0.70;99.90;;;;;;5015378;28;20182;-87
2021/01/17 07:33:03;;;;;;;1999.90;999.90;;;0.70;99.90;;;;;;4997930;28;20526;-87
2021/01/17 07:35:39;;;;;;;1999.90;999.90;;;0.70;99.90;;;;;;5014627;28;20236;-87
2021/01/17 07:38:29;;;;;;;1999.90;999.90;;;0.70;99.90;;;;;;5013370;28;20161;-88
2021/01/17 07:41:05;;;;;;;1999.90;999.90;;;0.70;99.90;;;;;;5009562;28;20178;-87
2021/01/17 07:43:37;;;;;;;1999.90;999.90;;;0.70;99.90;;;;;;5014767;28;20158;-87
2021/01/17 07:46:14;;;;;;;1999.90;999.90;;;0.80;99.90;;;;;;5015424;28;20150;-87
2021/01/17 07:48:42;;;;;;;1999.90;999.90;;;0.80;99.90;;;;;;5014967;28;20153;-88
2021/01/17 07:51:16;;;;;;;1999.90;999.90;;;0.80;99.90;;;;;;4997501;28;20197;-87
2021/01/17 07:54:05;;;;;;;1999.90;999.90;;;0.80;99.90;;;;;;5014397;28;20649;-89
2021/01/17 07:56:35;;;;;;;1999.90;999.90;;;0.80;99.90;;;;;;4996616;28;20190;-88
2021/01/17 07:59:05;;;;;;;1999.90;999.90;;;0.80;99.90;;;;;;5013979;28;20169;-88
2021/01/17 08:01:31;;;;;;;1999.90;999.90;;;0.90;99.90;;;;;;5013980;28;20269;-88
2021/01/17 08:04:16;;;;;;;1999.90;999.90;;;0.80;99.90;;;;;;4996209;28;20179;-88
2021/01/17 08:06:58;;;;;;;1999.90;999.90;;;0.80;99.90;;;;;;4997450;28;20552;-89
2021/01/17 08:09:47;;;;;;;1999.90;999.90;;;0.80;99.90;;;;;;4996311;28;20617;-88
2021/01/17 08:12:36;;;;;;;1999.90;999.90;;;0.80;99.90;;;;;;5012794;28;20643;-89
2021/01/17 08:15:14;;;;;;;1999.90;999.90;;;0.80;99.90;;;;;;4996598;28;20297;-88
2021/01/17 08:17:41;;;;;;;1999.90;999.90;;;0.80;99.90;;;;;;5014267;28;20168;-89
2021/01/17 08:20:07;;;;;;;1999.90;999.90;;;0.90;99.90;;;;;;5014076;28;20158;-89
2021/01/17 08:22:33;;;;;;;1999.90;999.90;;;0.90;99.90;;;;;;5013800;28;20187;-89
2021/01/17 08:25:08;;;;;;;1999.90;999.90;;;0.90;99.90;;;;;;5013724;28;20162;-89
2021/01/17 08:27:36;;;;;;;1999.90;999.90;;;0.90;99.90;;;;;;5014117;28;20157;-89
2021/01/17 08:30:08;;;;;;;1999.90;999.90;;;0.90;99.90;;;;;;5012584;28;20265;-89
2021/01/17 08:32:43;;;;;;;1999.90;999.90;;;0.90;99.90;;;;;;4997213;28;20174;-89
2021/01/17 08:35:18;;;;;;;1999.90;999.90;;;0.90;99.90;;;;;;4996925;28;20183;-89
2021/01/17 08:38:14;;;;;;;1999.90;999.90;;;0.90;99.90;;;;;;4996187;28;20173;-89
2021/01/17 08:40:43;;;;;;;1999.90;999.90;;;0.90;99.90;;;;;;4987536;28;20262;-89
2021/01/17 08:43:12;;;;;;;1999.90;999.90;;;0.90;99.90;;;;;;4995903;28;20170;-89
2021/01/17 08:45:47;;;;;;;1999.90;999.90;;;1.00;99.90;;;;;;4996332;28;20208;-89
2021/01/17 08:48:16;;;;;;;1999.90;999.90;;;1.00;99.90;;;;;;4996686;28;20244;-89
2021/01/17 08:50:44;;;;;;;1999.90;999.90;;;1.10;99.90;;;;;;4996572;28;20280;-90
2021/01/17 08:53:25;;;;;;;1999.90;999.90;;;1.10;99.90;;;;;;5013991;28;20166;-90
2021/01/17 08:56:01;;;;;;;1999.90;999.90;;;1.00;99.90;;;;;;4997038;28;20200;-90
2021/01/17 08:58:27;;;;;;;1999.90;999.90;;;1.00;99.90;;;;;;5014398;28;20145;-90
2021/01/17 09:00:52;;;;;;;1999.90;999.90;;;1.00;99.90;;;;;;4996058;28;20693;-90
2021/01/17 09:03:28;;;;;;;1999.90;999.90;;;0.90;99.90;;;;;;4996245;28;20174;-90
2021/01/17 09:05:57;;;;;;;1999.90;999.90;;;0.80;99.90;;;;;;4996596;28;20264;-89
2021/01/17 09:08:23;;;;;;;1999.90;999.90;;;0.90;99.90;;;;;;5013982;28;20166;-89
2021/01/17 09:10:52;;;;;;;1999.90;999.90;;;1.00;99.90;;;;;;5013856;28;20220;-89
2021/01/17 09:13:27;;;;;;;1999.90;999.90;;;1.00;99.90;;;;;;5014016;28;20400;-89
2021/01/17 09:16:01;;;;;;;1999.90;999.90;;;1.10;99.90;;;;;;5016917;28;20692;-89
2021/01/17 09:18:34;;;;;;;1999.90;999.90;;;1.10;99.90;;;;;;5017176;28;20661;-89
2021/01/17 09:21:01;;;;;;;1999.90;999.90;;;1.10;99.90;;;;;;4999460;28;20154;-89
2021/01/17 09:23:34;;;;;;;1999.90;999.90;;;1.20;99.90;;;;;;5017002;28;20154;-89
2021/01/17 09:26:01;;;;;;;1999.90;999.90;;;1.20;99.90;;;;;;4999985;28;20224;-89
2021/01/17 09:28:30;;;;;;;1999.90;999.90;;;1.20;99.90;;;;;;4999339;28;20174;-89
2021/01/17 09:30:59;;;;;;;1999.90;999.90;;;1.30;99.90;;;;;;4998852;28;20514;-88
2021/01/17 09:33:27;;;;;;;1999.90;999.90;;;1.40;99.90;;;;;;5016892;28;20173;-88
2021/01/17 09:35:53;;;;;;;1999.90;999.90;;;1.40;99.90;;;;;;5016832;28;20196;-88
2021/01/17 09:38:21;;;;;;;1999.90;999.90;;;1.40;99.90;;;;;;4999259;28;20528;-88
2021/01/17 09:40:53;;;;;;;1999.90;999.90;;;1.50;99.90;;;;;;5017290;28;20172;-88
2021/01/17 09:43:19;;;;;;;1999.90;999.90;;;1.60;99.90;;;;;;5018306;28;20150;-87
2021/01/17 09:45:58;;;;;;;1999.90;999.90;;;1.60;99.90;;;;;;5002605;28;20205;-87
2021/01/17 09:48:25;;;;;;;1999.90;999.90;;;1.40;99.90;;;;;;5021076;28;20161;-87
2021/01/17 09:50:51;;;;;;;1999.90;999.90;;;1.50;99.90;;;;;;5020737;28;20669;-87
2021/01/17 09:53:18;;;;;;;1999.90;999.90;;;1.40;99.90;;;;;;5020358;28;20532;-86
2021/01/17 09:55:45;;;;;;;1999.90;999.90;;;1.40;99.90;;;;;;5019244;28;20213;-85
2021/01/17 09:58:15;;;;;;;1999.90;999.90;;;1.30;99.90;;;;;;4985730;28;20169;-85
2021/01/17 10:00:43;;;;;;;1999.90;999.90;;;1.40;99.90;;;;;;5018978;28;20224;-85
2021/01/17 10:03:15;;;;;;;1999.90;999.90;;;1.40;99.90;;;;;;5001886;28;20166;-85
2021/01/17 10:05:43;;;;;;;1999.90;999.90;;;1.30;99.90;;;;;;5019538;28;20165;-85
2021/01/17 10:08:11;;;;;;;1999.90;999.90;;;1.30;99.90;;;;;;5020292;28;20166;-85
2021/01/17 10:10:39;;;;;;;1999.90;999.90;;;1.40;99.90;;;;;;5020592;28;20166;-85
2021/01/17 10:13:07;;;;;;;1999.90;999.90;;;1.40;99.90;;;;;;5003323;28;20165;-84
2021/01/17 10:15:33;;;;;;;1999.90;999.90;;;1.40;99.90;;;;;;5002959;28;20208;-84
2021/01/17 10:17:59;;;;;;;1999.90;999.90;;;1.40;99.90;;;;;;5002562;28;20233;-84
2021/01/17 10:20:32;;;;;;;1999.90;999.90;;;1.40;99.90;;;;;;5019993;28;20209;-83
2021/01/17 10:23:09;;;;;;;1999.90;999.90;;;1.30;99.90;;;;;;5001025;28;20401;-81
2021/01/17 10:25:36;;;;;;;1999.90;999.90;;;1.40;99.90;;;;;;5018703;28;20157;-84
2021/01/17 10:28:05;;;;;;;1999.90;999.90;;;1.30;99.90;;;;;;5019511;28;20660;-84
2021/01/17 10:30:33;;;;;;;1999.90;999.90;;;1.30;99.90;;;;;;5018976;28;20178;-81
2021/01/17 10:33:07;;;;;;;1999.90;999.90;;;1.30;99.90;;;;;;5001067;28;20584;-83
2021/01/17 10:35:37;;;;;;;1999.90;999.90;;;1.30;99.90;;;;;;5000754;28;20256;-83
2021/01/17 10:38:05;;;;;;;1999.90;999.90;;;1.40;99.90;;;;;;5017680;28;20150;-83
2021/01/17 10:40:31;;;;;;;1999.90;999.90;;;1.40;99.90;;;;;;5017497;28;20190;-83
2021/01/17 10:43:05;;;;;;;1999.90;999.90;;;1.50;99.90;;;;;;5019041;28;20248;-83
2021/01/17 10:45:31;;;;;;;1999.90;999.90;;;1.50;99.90;;;;;;5018401;28;20229;-82
2021/01/17 10:48:07;;;;;;;1999.90;999.90;;;1.50;99.90;;;;;;5001205;28;20246;-83
2021/01/17 10:51:01;;;;;;;1999.90;999.90;;;1.60;99.90;;;;;;5001663;28;20158;-83
2021/01/17 10:53:48;;;;;;;1999.90;999.90;;;1.60;99.90;;;;;;4996518;28;20269;-83
2021/01/17 10:56:20;;;;;;;1999.90;999.90;;;1.50;99.90;;;;;;5018049;28;20174;-83
2021/01/17 10:58:52;;;;;;;1999.90;999.90;;;1.50;99.90;;;;;;5017981;28;20142;-83
2021/01/17 11:01:29;;;;;;;1999.90;999.90;;;1.50;99.90;;;;;;5000461;28;20182;-84
2021/01/17 11:03:58;;;;;;;1999.90;999.90;;;1.50;99.90;;;;;;4999939;28;20193;-83
2021/01/17 11:06:35;;;;;;;1999.90;999.90;;;1.50;99.90;;;;;;5001021;28;20288;-83
2021/01/17 11:09:10;;;;;;;1999.90;999.90;;;1.60;99.90;;;;;;5000635;28;20178;-83
2021/01/17 11:11:50;;;;;;;1999.90;999.90;;;1.60;99.90;;;;;;5000246;28;20223;-84
2021/01/17 11:14:24;;;;;;;1999.90;999.90;;;1.60;99.90;;;;;;5018327;28;20146;-84
2021/01/17 11:16:51;;;;;;;1999.90;999.90;;;1.60;99.90;;;;;;5017847;28;20189;-84
2021/01/17 11:19:18;;;;;;;1999.90;999.90;;;1.50;99.90;;;;;;4999596;28;20170;-83
2021/01/17 11:21:45;;;;;;;1999.90;999.90;;;1.50;99.90;;;;;;5017992;28;20194;-83
2021/01/17 11:24:12;;;;;;;1999.90;999.90;;;1.50;99.90;;;;;;5017610;28;20166;-84
2021/01/17 11:26:38;;;;;;;1999.90;999.90;;;1.60;99.90;;;;;;4999725;28;20177;-83
2021/01/17 11:29:07;;;;;;;1999.90;999.90;;;1.60;99.90;;;;;;5017660;28;20173;-84
2021/01/17 11:31:34;;;;;;;1999.90;999.90;;;1.70;99.90;;;;;;5017621;28;20169;-84
2021/01/17 11:34:12;;;;;;;1999.90;999.90;;;1.70;99.90;;;;;;4998763;28;20668;-83
2021/01/17 11:36:37;;;;;;;1999.90;999.90;;;1.70;99.90;;;;;;5015688;28;20209;-83
2021/01/17 11:39:03;;;;;;;1999.90;999.90;;;1.80;99.90;;;;;;5017206;28;20173;-84
2021/01/17 11:41:38;;;;;;;1999.90;999.90;;;1.80;99.90;;;;;;5016619;28;20166;-84
2021/01/17 11:44:10;;;;;;;1999.90;999.90;;;1.80;99.90;;;;;;5015501;28;20659;-84
2021/01/17 11:46:36;;;;;;;1999.90;999.90;;;1.90;99.90;;;;;;5015020;28;20256;-83
2021/01/17 11:49:03;;;;;;;1999.90;999.90;;;1.90;99.90;;;;;;5015190;28;20247;-84
2021/01/17 11:51:28;;;;;;;1999.90;999.90;;;1.80;99.90;;;;;;4998441;28;20170;-85
2021/01/17 11:53:54;;;;;;;1999.90;999.90;;;1.90;99.90;;;;;;5016310;28;20210;-84
2021/01/17 11:56:20;;;;;;;1999.90;999.90;;;1.90;99.90;;;;;;5016450;28;20543;-85
2021/01/17 11:58:49;;;;;;;1999.90;999.90;;;1.80;99.90;;;;;;4998585;28;20228;-84
2021/01/17 12:01:24;;;;;;;1999.90;999.90;;;1.70;99.90;;;;;;5086262;23;20525;-81
2021/01/17 12:04:02;;;;;;;1999.90;999.90;;;1.70;99.90;;;;;;5018262;28;20150;-80
2021/01/17 12:06:33;;;;;;;1999.90;999.90;;;1.70;99.90;;;;;;5017908;28;20605;-81
2021/01/17 12:09:02;;;;;;;1999.90;999.90;;;1.70;99.90;;;;;;4999922;28;20258;-81
2021/01/17 12:11:45;;;;;;;1999.90;999.90;;;1.70;99.90;;;;;;5000569;28;20169;-81
2021/01/17 12:14:41;;;;;;;1999.90;999.90;;;1.90;99.90;;;;;;5017750;28;20150;-80
2021/01/17 12:17:07;;;;;;;1999.90;999.90;;;1.90;99.90;;;;;;5008438;28;20277;-80
2021/01/17 12:19:34;;;;;;;1999.90;999.90;;;1.90;99.90;;;;;;4999634;28;20165;-80
2021/01/17 12:22:01;;;;;;;1999.90;999.90;;;1.90;99.90;;;;;;4999297;28;20257;-79
2021/01/17 12:24:27;;;;;;;1999.90;999.90;;;1.90;99.90;;;;;;5017340;28;20165;-80